Time;durP1;ratioP1;P1;durP2;ratioP2;P2;SDS_P1;SDS_P2;PMS_P1;PMS_P2;Temp;Humidity;BMP_temperature;BMP_pressure;BME280_temperature;BME280_humidity;BME280_pressure;Samples;Min_cycle;Max_cycle;Signal;HPM_P1;HPM_P2
2022/06/29 00:01:32;;;;;;;7.23;6.57;;;20.90;99.90;;;;;;10456347;28;20201;-81
2022/06/29 00:06:34;;;;;;;6.80;6.30;;;20.80;99.90;;;;;;10472804;28;20212;-81
2022/06/29 00:11:37;;;;;;;6.37;6.00;;;20.80;99.90;;;;;;10472959;28;20189;-81
2022/06/29 00:16:39;;;;;;;7.13;6.67;;;20.80;99.90;;;;;;10471069;28;20228;-80
2022/06/29 00:21:41;;;;;;;7.07;6.57;;;20.80;99.90;;;;;;10470443;28;20676;-80
2022/06/29 00:26:45;;;;;;;6.20;5.80;;;20.70;99.90;;;;;;10476587;28;20212;-80
2022/06/29 00:31:47;;;;;;;6.53;6.03;;;20.70;99.90;;;;;;10448952;28;20203;-80
2022/06/29 00:36:49;;;;;;;6.37;5.97;;;20.60;99.90;;;;;;10450178;28;20221;-77
2022/06/29 00:41:53;;;;;;;6.20;5.80;;;20.60;99.90;;;;;;10462688;28;20316;-78
2022/06/29 00:46:57;;;;;;;7.57;6.90;;;20.60;99.90;;;;;;10461605;28;20347;-79
2022/06/29 00:52:04;;;;;;;6.30;5.80;;;20.60;99.90;;;;;;10458700;28;20201;-78
2022/06/29 00:57:12;;;;;;;7.20;6.70;;;20.60;99.90;;;;;;10462354;28;20316;-78
2022/06/29 01:02:16;;;;;;;7.17;6.67;;;20.60;99.90;;;;;;10470262;28;20200;-78
2022/06/29 01:07:21;;;;;;;6.90;6.40;;;20.60;99.90;;;;;;10445653;28;20220;-78
2022/06/29 01:12:24;;;;;;;7.30;6.80;;;20.60;99.90;;;;;;10464287;28;20214;-78
2022/06/29 01:17:27;;;;;;;6.70;6.30;;;20.60;99.90;;;;;;10482636;28;20688;-78
2022/06/29 01:22:30;;;;;;;6.60;6.20;;;20.60;99.90;;;;;;10455856;28;20712;-78
2022/06/29 01:27:33;;;;;;;9.30;6.93;;;20.50;99.90;;;;;;10490449;28;20248;-78
2022/06/29 01:32:38;;;;;;;7.67;7.00;;;20.50;99.90;;;;;;10485984;28;20706;-78
2022/06/29 01:37:42;;;;;;;5.97;5.67;;;20.50;99.90;;;;;;10489288;28;20307;-79
2022/06/29 01:42:44;;;;;;;6.90;6.50;;;20.40;99.90;;;;;;10489697;28;20317;-78
2022/06/29 01:47:46;;;;;;;6.83;6.27;;;20.40;99.90;;;;;;10491206;28;20224;-78
2022/06/29 01:52:50;;;;;;;7.00;6.50;;;20.30;99.90;;;;;;10490702;28;20313;-78
2022/06/29 01:57:52;;;;;;;7.07;6.67;;;20.30;99.90;;;;;;10486973;28;20242;-79
2022/06/29 02:02:54;;;;;;;6.60;6.30;;;20.30;99.90;;;;;;10473574;28;20723;-78
2022/06/29 02:07:57;;;;;;;6.60;6.20;;;20.30;99.90;;;;;;10497565;28;20341;-79
2022/06/29 02:13:00;;;;;;;7.77;7.17;;;20.20;99.90;;;;;;10499887;28;20291;-78
2022/06/29 02:18:02;;;;;;;7.20;6.77;;;20.20;99.90;;;;;;10497141;28;20335;-79
2022/06/29 02:23:05;;;;;;;7.10;6.60;;;20.20;99.90;;;;;;10481727;28;20639;-80
2022/06/29 02:28:08;;;;;;;7.63;7.10;;;20.10;99.90;;;;;;10503568;28;20661;-79
2022/06/29 02:38:30;;;;;;;8.00;7.40;;;20.10;99.90;;;;;;10488374;28;20314;-79
2022/06/29 02:43:32;;;;;;;9.00;8.40;;;20.00;99.90;;;;;;10508030;28;20196;-80
2022/06/29 02:48:35;;;;;;;8.13;7.37;;;20.00;99.90;;;;;;10494782;28;20217;-79
2022/06/29 02:53:40;;;;;;;9.00;8.30;;;20.00;99.90;;;;;;10502708;28;20704;-79
2022/06/29 02:58:42;;;;;;;8.67;8.07;;;19.90;99.90;;;;;;10502417;28;20213;-78
2022/06/29 03:03:45;;;;;;;8.33;7.63;;;19.90;99.90;;;;;;10487942;28;20291;-77
2022/06/29 03:08:48;;;;;;;8.70;8.10;;;19.90;99.90;;;;;;10463760;28;20224;-78
2022/06/29 03:13:51;;;;;;;8.87;8.17;;;19.90;99.90;;;;;;10475807;28;20775;-78
2022/06/29 03:18:53;;;;;;;9.37;8.77;;;19.90;99.90;;;;;;10466755;28;20758;-78
2022/06/29 03:23:56;;;;;;;8.53;7.90;;;19.90;99.90;;;;;;10477118;28;20220;-79
2022/06/29 03:28:59;;;;;;;9.23;8.53;;;19.90;99.90;;;;;;10483923;28;20217;-77
2022/06/29 03:34:01;;;;;;;8.53;7.87;;;19.90;99.90;;;;;;10491237;28;20597;-78
2022/06/29 03:39:04;;;;;;;8.77;7.97;;;19.90;99.90;;;;;;10493437;28;20299;-80
2022/06/29 03:44:07;;;;;;;8.27;7.57;;;19.90;99.90;;;;;;10499841;28;20275;-79
2022/06/29 03:49:09;;;;;;;8.93;8.23;;;19.90;99.90;;;;;;10478832;28;20317;-79
2022/06/29 03:54:12;;;;;;;8.40;7.80;;;19.90;99.90;;;;;;10501681;28;20228;-79
2022/06/29 03:59:14;;;;;;;9.03;8.43;;;19.90;99.90;;;;;;10492516;28;20227;-79
2022/06/29 04:04:16;;;;;;;8.10;7.60;;;19.90;99.90;;;;;;10495446;28;20208;-78
2022/06/29 04:09:20;;;;;;;8.20;7.70;;;19.90;99.90;;;;;;10481175;28;20224;-79
2022/06/29 04:14:23;;;;;;;9.30;8.57;;;19.90;99.90;;;;;;10503386;28;20499;-79
2022/06/29 04:19:26;;;;;;;8.60;7.90;;;19.90;99.90;;;;;;10505726;28;20300;-80
2022/06/29 04:24:30;;;;;;;9.10;8.30;;;19.90;99.90;;;;;;10496318;28;20224;-78
2022/06/29 04:29:32;;;;;;;9.23;8.60;;;19.80;99.90;;;;;;10489684;28;20633;-79
2022/06/29 04:34:34;;;;;;;8.17;7.57;;;19.90;99.90;;;;;;10498927;28;20307;-79
2022/06/29 04:39:38;;;;;;;9.07;8.47;;;19.90;99.90;;;;;;10496438;28;20232;-78
2022/06/29 04:44:40;;;;;;;7.73;7.23;;;20.00;99.90;;;;;;10490646;28;20306;-77
2022/06/29 04:49:42;;;;;;;7.90;7.43;;;20.00;99.90;;;;;;10485984;28;20196;-78
2022/06/29 04:54:45;;;;;;;8.53;7.93;;;20.00;99.90;;;;;;10483917;28;20299;-78
2022/06/29 04:59:47;;;;;;;9.67;8.67;;;20.10;99.90;;;;;;10477231;28;20245;-78
2022/06/29 05:04:49;;;;;;;8.27;7.67;;;20.10;99.90;;;;;;10493528;28;20193;-79
2022/06/29 05:09:53;;;;;;;8.70;8.10;;;20.20;99.90;;;;;;10480064;28;20255;-78
2022/06/29 05:14:56;;;;;;;9.17;8.30;;;20.20;99.90;;;;;;10476789;28;20216;-78
2022/06/29 05:19:58;;;;;;;8.10;7.60;;;20.20;99.90;;;;;;10479078;28;20208;-77
2022/06/29 05:25:01;;;;;;;9.00;7.47;;;20.20;99.90;;;;;;10466200;28;20224;-77
2022/06/29 05:30:04;;;;;;;7.93;7.43;;;20.20;99.90;;;;;;10464273;28;20276;-77
2022/06/29 05:35:08;;;;;;;8.17;7.67;;;20.30;99.90;;;;;;10472303;28;20239;-76
2022/06/29 05:40:11;;;;;;;7.93;7.43;;;20.30;99.90;;;;;;10473164;28;20193;-77
2022/06/29 05:45:13;;;;;;;8.50;7.80;;;20.30;99.90;;;;;;10480519;28;20742;-77
2022/06/29 05:50:16;;;;;;;8.03;7.53;;;20.30;99.90;;;;;;10491279;28;20204;-77
2022/06/29 05:55:19;;;;;;;8.53;7.80;;;20.40;99.90;;;;;;10493582;28;20224;-77
2022/06/29 06:00:21;;;;;;;8.43;7.83;;;20.50;99.90;;;;;;10488155;28;20617;-77
2022/06/29 06:05:23;;;;;;;7.17;6.67;;;20.60;99.90;;;;;;10487023;28;20295;-78
2022/06/29 06:10:27;;;;;;;8.57;8.07;;;20.70;99.90;;;;;;10491591;28;20208;-77
2022/06/29 06:15:29;;;;;;;8.70;8.07;;;20.80;99.90;;;;;;10487094;28;20297;-77
2022/06/29 06:20:32;;;;;;;9.53;8.93;;;21.00;99.90;;;;;;10492731;28;20629;-77
2022/06/29 06:25:35;;;;;;;9.53;8.73;;;21.30;99.90;;;;;;10486211;28;20692;-77
2022/06/29 06:30:40;;;;;;;9.00;8.40;;;21.50;99.90;;;;;;10491960;28;20239;-79
2022/06/29 06:35:42;;;;;;;9.70;9.00;;;21.70;99.90;;;;;;10475811;28;20224;-78
2022/06/29 06:46:05;;;;;;;8.00;7.50;;;22.00;99.90;;;;;;10486858;28;20219;-77
2022/06/29 06:51:07;;;;;;;8.73;7.83;;;22.10;99.90;;;;;;10474314;28;20197;-79
2022/06/29 06:56:11;;;;;;;9.10;8.40;;;22.30;99.90;;;;;;10497372;28;20259;-78
2022/06/29 07:01:13;;;;;;;7.40;6.83;;;22.60;99.90;;;;;;10461825;28;20208;-78
2022/06/29 07:06:15;;;;;;;8.50;7.80;;;22.70;99.90;;;;;;10498077;28;20590;-78
2022/06/29 07:11:19;;;;;;;7.30;6.70;;;22.90;99.90;;;;;;10489519;28;20205;-78
2022/06/29 07:16:21;;;;;;;6.57;5.90;;;23.20;99.90;;;;;;10491720;28;20711;-78
2022/06/29 07:21:23;;;;;;;8.40;7.73;;;23.40;99.90;;;;;;10477904;28;20200;-78
2022/06/29 07:26:27;;;;;;;7.57;7.07;;;23.60;99.90;;;;;;10478225;28;20217;-78
2022/06/29 07:31:29;;;;;;;7.17;6.70;;;23.80;99.90;;;;;;10497661;28;20613;-78
2022/06/29 07:36:31;;;;;;;6.90;6.40;;;24.00;99.90;;;;;;10497918;28;20315;-78
2022/06/29 07:41:36;;;;;;;7.30;6.80;;;24.30;99.90;;;;;;10476043;28;20205;-78
2022/06/29 07:46:38;;;;;;;7.30;6.60;;;24.40;99.90;;;;;;10491334;28;20219;-78
2022/06/29 07:51:40;;;;;;;6.57;6.17;;;24.60;99.90;;;;;;10478946;28;20231;-78
2022/06/29 07:56:43;;;;;;;7.37;6.87;;;24.80;99.90;;;;;;10497134;28;20307;-78
2022/06/29 08:01:46;;;;;;;6.50;6.10;;;25.00;99.90;;;;;;10497234;28;20253;-78
2022/06/29 08:06:48;;;;;;;6.97;6.40;;;25.20;99.90;;;;;;10492690;28;20270;-78
2022/06/29 08:11:51;;;;;;;7.27;6.67;;;25.50;99.90;;;;;;10494341;28;20200;-78
2022/06/29 08:16:53;;;;;;;6.80;6.23;;;25.90;99.90;;;;;;10488723;28;20249;-78
2022/06/29 08:21:55;;;;;;;6.40;5.90;;;26.00;99.90;;;;;;10497914;28;20192;-78
2022/06/29 08:26:59;;;;;;;9.20;6.07;;;26.40;99.90;;;;;;10491439;28;20580;-78
2022/06/29 08:32:02;;;;;;;6.57;6.00;;;26.80;99.60;;;;;;10492913;28;20644;-78
2022/06/29 08:37:04;;;;;;;6.20;5.60;;;27.30;98.40;;;;;;10480172;28;20312;-78
2022/06/29 08:42:09;;;;;;;5.87;5.57;;;27.80;97.60;;;;;;10496104;28;20672;-78
2022/06/29 08:47:11;;;;;;;4.70;4.40;;;28.40;97.50;;;;;;10475419;28;20220;-78
2022/06/29 08:52:13;;;;;;;5.27;4.87;;;28.90;95.80;;;;;;10490852;28;20201;-80
2022/06/29 08:57:17;;;;;;;6.63;6.00;;;29.40;93.80;;;;;;10478672;28;20661;-78
2022/06/29 09:02:19;;;;;;;5.70;5.33;;;29.60;93.20;;;;;;10486587;28;20266;-80
2022/06/29 09:07:22;;;;;;;5.20;4.80;;;29.90;93.10;;;;;;10458035;28;20219;-80
2022/06/29 09:12:25;;;;;;;5.47;5.17;;;30.40;91.70;;;;;;10452396;28;20308;-78
2022/06/29 09:17:30;;;;;;;6.63;6.23;;;30.90;91.60;;;;;;10464805;28;20217;-78
2022/06/29 09:22:32;;;;;;;5.30;5.00;;;31.30;90.00;;;;;;10467300;28;20196;-79
2022/06/29 09:27:38;;;;;;;5.10;4.60;;;31.60;87.80;;;;;;10432992;28;20330;-78
2022/06/29 09:32:40;;;;;;;5.47;5.17;;;31.80;87.80;;;;;;10459716;28;21210;-78
2022/06/29 09:37:42;;;;;;;5.60;5.20;;;32.20;84.50;;;;;;10414493;28;20246;-78
2022/06/29 09:42:46;;;;;;;6.00;5.60;;;32.70;83.10;;;;;;10451914;28;20204;-78
2022/06/29 09:47:48;;;;;;;7.10;4.80;;;33.20;77.90;;;;;;10459380;28;20219;-78
2022/06/29 09:52:50;;;;;;;4.67;4.37;;;33.30;79.00;;;;;;10460780;28;20220;-79
2022/06/29 09:57:57;;;;;;;5.13;4.73;;;32.50;78.70;;;;;;10477853;28;20315;-79
2022/06/29 10:03:00;;;;;;;4.73;4.33;;;31.50;81.90;;;;;;10480046;28;20214;-78
2022/06/29 10:08:02;;;;;;;5.60;5.10;;;30.70;83.00;;;;;;10477252;28;20225;-80
2022/06/29 10:19:30;;;;;;;5.70;5.13;;;29.30;85.80;;;;;;10465940;28;20220;-79
2022/06/29 10:24:32;;;;;;;7.17;5.37;;;28.60;88.60;;;;;;10420609;28;20204;-78
2022/06/29 10:29:38;;;;;;;7.77;6.50;;;28.00;89.60;;;;;;10491288;28;20228;-78
2022/06/29 10:40:01;;;;;;;5.70;5.40;;;27.10;91.10;;;;;;10481342;28;20207;-78
2022/06/29 10:45:06;;;;;;;6.13;5.60;;;26.90;91.70;;;;;;10472436;28;20217;-78
2022/06/29 10:50:25;;;;;;;5.90;5.03;;;26.80;92.40;;;;;;10478948;28;20299;-78
2022/06/29 10:55:29;;;;;;;5.07;4.70;;;26.90;91.90;;;;;;10482866;28;20235;-81
2022/06/29 11:00:34;;;;;;;5.50;5.20;;;27.00;92.00;;;;;;10484478;28;20201;-79
2022/06/29 11:05:36;;;;;;;5.13;4.77;;;27.20;92.20;;;;;;10474797;28;20275;-78
2022/06/29 11:15:58;;;;;;;5.97;5.37;;;27.50;91.60;;;;;;10460897;28;20228;-79
2022/06/29 11:21:03;;;;;;;5.87;5.40;;;27.60;92.00;;;;;;10445511;28;20203;-80
2022/06/29 11:26:06;;;;;;;5.47;5.07;;;27.70;92.20;;;;;;10474365;28;20213;-80
2022/06/29 11:31:11;;;;;;;6.03;4.83;;;27.80;91.70;;;;;;10464261;28;20197;-77
2022/06/29 11:36:16;;;;;;;5.00;4.60;;;27.80;91.80;;;;;;10443942;28;20344;-78
2022/06/29 11:41:19;;;;;;;5.20;4.70;;;27.90;90.80;;;;;;10446324;28;20197;-78
2022/06/29 11:46:27;;;;;;;4.27;4.00;;;28.10;91.10;;;;;;10461486;28;20208;-78
2022/06/29 11:51:29;;;;;;;5.60;4.70;;;28.30;90.60;;;;;;10461434;28;20224;-78
2022/06/29 11:56:32;;;;;;;5.53;4.63;;;28.50;90.70;;;;;;10485850;28;20235;-81
2022/06/29 12:01:36;;;;;;;5.80;5.30;;;28.50;90.10;;;;;;10494227;28;20212;-81
2022/06/29 12:06:38;;;;;;;4.43;4.00;;;28.50;90.10;;;;;;10483864;28;20299;-78
2022/06/29 12:11:40;;;;;;;5.60;5.10;;;28.50;90.60;;;;;;10494140;28;20250;-78
2022/06/29 12:16:44;;;;;;;5.23;4.83;;;28.40;90.20;;;;;;10468933;28;20236;-78
2022/06/29 12:21:46;;;;;;;5.27;4.87;;;28.20;90.70;;;;;;10474103;28;20223;-79
2022/06/29 12:26:48;;;;;;;5.73;4.37;;;28.20;90.40;;;;;;10453966;28;20212;-78
2022/06/29 12:31:52;;;;;;;6.57;4.50;;;28.00;90.90;;;;;;10460872;28;21190;-78
2022/06/29 12:36:54;;;;;;;5.43;5.03;;;27.80;90.40;;;;;;10468007;28;20379;-79
2022/06/29 12:41:57;;;;;;;4.53;4.23;;;27.60;91.00;;;;;;10450744;28;20296;-79
2022/06/29 12:47:01;;;;;;;4.87;4.50;;;27.50;90.60;;;;;;10469735;28;20212;-78
2022/06/29 12:52:03;;;;;;;4.20;3.90;;;27.30;91.30;;;;;;10481486;28;20565;-79
2022/06/29 12:57:05;;;;;;;3.80;3.60;;;27.30;90.80;;;;;;10470304;28;20278;-79
2022/06/29 13:02:09;;;;;;;4.40;4.10;;;27.40;91.40;;;;;;10426028;28;20474;-79
2022/06/29 13:07:12;;;;;;;5.17;4.07;;;27.40;91.30;;;;;;10463437;28;20740;-78
2022/06/29 13:12:15;;;;;;;5.03;4.53;;;27.40;91.40;;;;;;10448910;28;20837;-78
2022/06/29 13:17:19;;;;;;;6.70;4.70;;;27.40;90.90;;;;;;10460184;28;20224;-78
2022/06/29 13:22:22;;;;;;;4.47;4.27;;;27.50;91.30;;;;;;10483377;28;21107;-78
2022/06/29 13:27:24;;;;;;;4.40;4.10;;;27.50;90.50;;;;;;10442653;28;20308;-78
2022/06/29 13:32:27;;;;;;;4.67;4.30;;;27.50;90.70;;;;;;10422773;28;20286;-78
2022/06/29 13:37:30;;;;;;;4.70;4.40;;;27.50;91.70;;;;;;10468624;28;20228;-79
2022/06/29 13:42:32;;;;;;;4.63;4.30;;;27.50;91.30;;;;;;10493594;28;20196;-79
2022/06/29 13:47:35;;;;;;;5.00;4.60;;;27.40;92.00;;;;;;10488804;28;20303;-79
2022/06/29 13:52:38;;;;;;;4.50;4.20;;;27.40;91.30;;;;;;10474994;28;20201;-79
2022/06/29 13:57:42;;;;;;;4.83;4.43;;;27.30;91.80;;;;;;10494013;28;20262;-79
2022/06/29 14:02:46;;;;;;;4.97;4.57;;;27.30;92.10;;;;;;10494533;28;20196;-79
2022/06/29 14:07:48;;;;;;;5.10;4.80;;;27.30;92.30;;;;;;10469447;28;20216;-79
2022/06/29 14:12:50;;;;;;;6.10;4.20;;;27.40;91.50;;;;;;10473182;28;20224;-79
2022/06/29 14:17:54;;;;;;;4.53;4.23;;;27.40;92.00;;;;;;10491939;28;20220;-79
2022/06/29 14:22:56;;;;;;;5.00;4.50;;;27.40;91.30;;;;;;10493845;28;20556;-79
2022/06/29 14:27:58;;;;;;;4.57;4.27;;;27.50;92.20;;;;;;10493650;28;20212;-78
2022/06/29 14:33:02;;;;;;;4.87;4.47;;;27.60;91.40;;;;;;10494392;28;20710;-79
2022/06/29 14:38:04;;;;;;;4.30;3.90;;;27.60;91.40;;;;;;10487932;28;20689;-78
2022/06/29 14:43:06;;;;;;;5.30;4.90;;;27.60;91.30;;;;;;10491145;28;20197;-78
2022/06/29 14:48:12;;;;;;;4.90;4.53;;;27.50;91.60;;;;;;10449657;28;20266;-79
2022/06/29 14:53:14;;;;;;;4.83;4.37;;;27.40;92.20;;;;;;10490995;28;20262;-77
2022/06/29 14:58:16;;;;;;;4.70;4.30;;;27.20;91.10;;;;;;10490317;28;20316;-78
2022/06/29 15:03:20;;;;;;;5.83;5.33;;;27.20;91.10;;;;;;10468556;28;20189;-77
2022/06/29 15:08:34;;;;;;;6.43;5.10;;;27.00;91.80;;;;;;10473839;28;20267;-79
2022/06/29 15:13:39;;;;;;;5.13;4.73;;;26.90;92.00;;;;;;10495301;28;20232;-77
2022/06/29 15:18:43;;;;;;;4.90;4.60;;;27.00;92.30;;;;;;10496242;28;20217;-78
2022/06/29 15:23:46;;;;;;;4.50;4.20;;;27.10;91.80;;;;;;10480212;28;20287;-77
2022/06/29 15:28:48;;;;;;;4.80;4.40;;;27.20;91.90;;;;;;10493863;28;20240;-78
2022/06/29 15:39:13;;;;;;;6.97;4.97;;;27.30;91.60;;;;;;10494758;28;20307;-77
2022/06/29 15:44:15;;;;;;;5.40;4.97;;;27.30;91.40;;;;;;10494394;28;20207;-77
2022/06/29 15:49:18;;;;;;;5.80;5.10;;;27.30;91.20;;;;;;10479454;28;20251;-76
2022/06/29 15:59:40;;;;;;;5.50;5.00;;;27.20;91.50;;;;;;10475532;28;20716;-77
2022/06/29 16:04:44;;;;;;;5.50;5.00;;;27.10;91.10;;;;;;10497327;28;20378;-78
2022/06/29 16:09:46;;;;;;;5.80;5.40;;;26.90;92.10;;;;;;10465230;28;20193;-76
2022/06/29 16:14:48;;;;;;;5.57;5.17;;;26.80;92.00;;;;;;10486253;28;20201;-76
2022/06/29 16:19:52;;;;;;;5.20;4.90;;;26.60;93.00;;;;;;10451326;28;20707;-76
2022/06/29 16:24:54;;;;;;;5.80;5.30;;;26.50;92.40;;;;;;10468141;28;20297;-77
2022/06/29 16:29:57;;;;;;;5.50;5.20;;;26.50;92.20;;;;;;10475358;28;20204;-76
2022/06/29 16:35:00;;;;;;;5.90;5.30;;;26.40;92.40;;;;;;10469468;28;20200;-75
2022/06/29 16:40:06;;;;;;;5.87;5.37;;;26.50;93.40;;;;;;10440065;28;20208;-77
2022/06/29 16:45:11;;;;;;;5.47;5.07;;;26.40;93.00;;;;;;10449511;28;20236;-78
2022/06/29 16:50:14;;;;;;;4.90;4.50;;;26.30;92.00;;;;;;10450928;28;20212;-77
2022/06/29 16:55:17;;;;;;;5.67;5.30;;;26.30;92.70;;;;;;10444767;28;20221;-77
2022/06/29 17:00:19;;;;;;;5.70;5.40;;;26.20;93.30;;;;;;10448809;28;20205;-77
2022/06/29 17:05:22;;;;;;;6.77;6.10;;;26.10;92.90;;;;;;10472912;28;20229;-77
2022/06/29 17:10:24;;;;;;;5.90;5.50;;;26.00;93.30;;;;;;10470662;28;20297;-76
2022/06/29 17:15:27;;;;;;;4.30;3.90;;;26.00;93.30;;;;;;10472911;28;20314;-77
2022/06/29 17:20:30;;;;;;;6.00;5.50;;;26.10;95.10;;;;;;10475889;28;20288;-77
2022/06/29 17:25:32;;;;;;;5.60;5.20;;;26.10;95.10;;;;;;10436611;28;20245;-78
2022/06/29 17:30:35;;;;;;;5.80;5.47;;;26.10;94.40;;;;;;10463728;28;20706;-78
2022/06/29 17:35:38;;;;;;;6.40;5.80;;;26.10;92.90;;;;;;10480766;28;20360;-77
2022/06/29 17:40:40;;;;;;;5.77;5.27;;;26.10;93.20;;;;;;10471189;28;20728;-77
2022/06/29 17:45:42;;;;;;;5.87;5.37;;;26.00;94.10;;;;;;10479448;28;20639;-77
2022/06/29 17:50:46;;;;;;;6.47;5.07;;;26.00;92.60;;;;;;10483099;28;20207;-77
2022/06/29 17:55:48;;;;;;;6.13;5.73;;;25.90;93.40;;;;;;10479999;28;20231;-77
2022/06/29 18:00:50;;;;;;;7.17;6.53;;;25.80;95.10;;;;;;10481692;28;20239;-78
2022/06/29 18:05:54;;;;;;;6.30;5.80;;;25.70;96.20;;;;;;10468703;28;20212;-78
2022/06/29 18:10:56;;;;;;;5.37;4.97;;;25.60;95.10;;;;;;10473547;28;20212;-77
2022/06/29 18:15:58;;;;;;;5.80;5.40;;;25.50;95.20;;;;;;10488150;28;20227;-78
2022/06/29 18:21:02;;;;;;;6.00;5.40;;;25.50;95.10;;;;;;10458382;28;20626;-78
2022/06/29 18:26:04;;;;;;;6.07;5.57;;;25.60;95.20;;;;;;10478115;28;20220;-77
2022/06/29 18:31:06;;;;;;;5.93;5.40;;;25.60;95.80;;;;;;10488093;28;20216;-77
2022/06/29 18:36:10;;;;;;;7.13;6.20;;;25.50;94.30;;;;;;10486238;28;20232;-78
2022/06/29 18:41:12;;;;;;;5.93;5.53;;;25.50;95.50;;;;;;10489279;28;20223;-79
2022/06/29 18:46:14;;;;;;;6.63;6.03;;;25.40;95.10;;;;;;10477697;28;20251;-79
2022/06/29 18:51:18;;;;;;;7.00;6.50;;;25.30;94.60;;;;;;10493692;28;20212;-79
2022/06/29 18:56:20;;;;;;;6.00;5.60;;;25.20;95.90;;;;;;10476921;28;20719;-79
2022/06/29 19:01:22;;;;;;;6.20;5.70;;;25.20;96.20;;;;;;10485664;28;20587;-79
2022/06/29 19:06:26;;;;;;;6.17;5.77;;;25.10;95.70;;;;;;10470982;28;20212;-80
2022/06/29 19:16:48;;;;;;;6.90;6.30;;;25.00;96.30;;;;;;10465848;28;20657;-80
2022/06/29 19:21:51;;;;;;;6.33;5.73;;;24.90;96.30;;;;;;10473307;28;20232;-79
2022/06/29 19:26:53;;;;;;;7.03;6.37;;;24.80;96.40;;;;;;10493975;28;20221;-79
2022/06/29 19:31:56;;;;;;;6.80;6.10;;;24.70;96.30;;;;;;10491220;28;20222;-80
2022/06/29 19:36:59;;;;;;;6.77;6.20;;;24.50;96.70;;;;;;10494211;28;20240;-80
2022/06/29 19:42:02;;;;;;;6.40;5.93;;;24.40;96.90;;;;;;10477202;28;20209;-80
2022/06/29 19:47:05;;;;;;;6.50;6.00;;;24.30;96.90;;;;;;10475586;28;20221;-80
2022/06/29 19:52:08;;;;;;;6.57;6.00;;;24.20;97.30;;;;;;10475179;28;20726;-79
2022/06/29 19:57:10;;;;;;;6.47;5.93;;;24.10;97.40;;;;;;10477457;28;20256;-79
2022/06/29 20:02:12;;;;;;;6.20;5.70;;;24.00;97.50;;;;;;10485645;28;20209;-79
2022/06/29 20:07:16;;;;;;;6.20;5.80;;;23.90;97.50;;;;;;10450513;28;20610;-78
2022/06/29 20:12:18;;;;;;;8.83;6.70;;;23.90;97.70;;;;;;10485504;28;20338;-79
2022/06/29 20:17:20;;;;;;;6.40;5.87;;;23.80;97.90;;;;;;10475248;28;20307;-77
2022/06/29 20:22:27;;;;;;;6.53;5.90;;;23.80;97.60;;;;;;10477970;28;20200;-78
2022/06/29 20:27:29;;;;;;;7.60;5.93;;;23.70;97.90;;;;;;10457438;28;20314;-77
2022/06/29 20:32:32;;;;;;;6.07;5.67;;;23.60;98.00;;;;;;10455802;28;20866;-77
2022/06/29 20:37:36;;;;;;;6.27;5.87;;;23.60;98.00;;;;;;10460668;28;20611;-77
2022/06/29 20:42:38;;;;;;;5.87;5.47;;;23.50;98.20;;;;;;10458350;28;20663;-79
2022/06/29 20:47:40;;;;;;;5.50;5.10;;;23.50;98.30;;;;;;10479167;28;20307;-78
2022/06/29 20:52:43;;;;;;;5.80;5.40;;;23.40;98.30;;;;;;10476246;28;20201;-79
2022/06/29 20:57:48;;;;;;;6.13;5.67;;;23.40;98.30;;;;;;10481471;28;20228;-78
2022/06/29 21:02:50;;;;;;;7.33;5.43;;;23.30;98.40;;;;;;10480787;28;20238;-78
2022/06/29 21:07:54;;;;;;;6.60;6.07;;;23.30;98.30;;;;;;10476806;28;20755;-77
2022/06/29 21:12:56;;;;;;;6.93;6.37;;;23.30;98.20;;;;;;10475837;28;20258;-77
2022/06/29 21:17:58;;;;;;;6.30;5.90;;;23.20;98.20;;;;;;10469929;28;20346;-78
2022/06/29 21:23:02;;;;;;;6.30;5.80;;;23.20;98.30;;;;;;10476136;28;20295;-77
2022/06/29 21:28:04;;;;;;;6.43;5.90;;;23.10;98.80;;;;;;10481278;28;21011;-77
2022/06/29 21:33:06;;;;;;;6.97;6.07;;;23.10;98.50;;;;;;10469702;28;20279;-77
2022/06/29 21:38:10;;;;;;;5.33;4.83;;;23.10;98.50;;;;;;10469372;28;20221;-78
2022/06/29 21:43:12;;;;;;;7.87;5.40;;;23.10;98.50;;;;;;10464584;28;20283;-77
2022/06/29 21:53:31;;;;;;;5.47;4.93;;;23.00;98.10;;;;;;10477473;28;20208;-78
2022/06/29 21:58:34;;;;;;;5.17;4.67;;;23.00;98.50;;;;;;10440478;28;20314;-77
2022/06/29 22:03:36;;;;;;;5.10;4.70;;;23.00;98.10;;;;;;10470882;28;20206;-77
2022/06/29 22:08:40;;;;;;;5.30;4.90;;;23.00;98.10;;;;;;10470084;28;20649;-77
2022/06/29 22:13:42;;;;;;;4.63;4.23;;;23.00;98.50;;;;;;10481060;28;20854;-77
2022/06/29 22:18:46;;;;;;;5.40;4.57;;;23.00;98.40;;;;;;10457571;28;20604;-78
2022/06/29 22:23:49;;;;;;;4.73;4.20;;;22.90;98.40;;;;;;10467134;28;20203;-77
2022/06/29 22:28:51;;;;;;;4.43;4.13;;;22.90;98.60;;;;;;10471753;28;20222;-78
2022/06/29 22:33:54;;;;;;;4.57;3.70;;;22.90;98.60;;;;;;10466726;28;20213;-77
2022/06/29 22:38:57;;;;;;;5.23;4.80;;;22.80;98.10;;;;;;10484673;28;20265;-77
2022/06/29 22:43:59;;;;;;;4.50;4.23;;;22.80;98.00;;;;;;10476143;28;20258;-78
2022/06/29 22:49:01;;;;;;;4.50;4.30;;;22.70;98.60;;;;;;10471560;28;20223;-78
2022/06/29 22:54:05;;;;;;;5.13;4.73;;;22.60;98.00;;;;;;10479201;28;20283;-78
2022/06/29 22:59:07;;;;;;;7.90;4.03;;;22.60;98.20;;;;;;10481802;28;20324;-79
2022/06/29 23:04:10;;;;;;;4.93;4.63;;;22.50;98.10;;;;;;10485665;28;20200;-79
2022/06/29 23:09:14;;;;;;;4.97;4.57;;;22.40;98.30;;;;;;10486899;28;20209;-78
2022/06/29 23:14:16;;;;;;;11.97;4.37;;;22.40;98.10;;;;;;10480557;28;20236;-78
2022/06/29 23:19:18;;;;;;;5.97;5.10;;;22.30;98.50;;;;;;10447738;28;20308;-78
2022/06/29 23:24:21;;;;;;;5.13;4.53;;;22.30;98.60;;;;;;10471996;28;20197;-79
2022/06/29 23:29:24;;;;;;;4.93;4.53;;;22.30;98.50;;;;;;10475188;28;20220;-79
2022/06/29 23:34:26;;;;;;;4.70;4.40;;;22.20;98.90;;;;;;10468347;28;20267;-79
2022/06/29 23:39:29;;;;;;;4.67;4.37;;;22.20;98.70;;;;;;10471485;28;20250;-79
2022/06/29 23:44:31;;;;;;;4.40;4.10;;;22.20;98.80;;;;;;10468669;28;20724;-78
2022/06/29 23:49:34;;;;;;;6.67;3.87;;;22.10;99.00;;;;;;10468512;28;20267;-78
2022/06/29 23:54:37;;;;;;;4.90;4.17;;;22.10;99.50;;;;;;10470212;28;20564;-78
2022/06/29 23:59:39;;;;;;;4.90;4.60;;;22.10;99.50;;;;;;10451220;28;20770;-78
